Terminal Aerodrome Forecast
Issued by NWS

Home | Current Version | Previous Version | Text Only | Print | Product List | Glossary On
Versions: 1 2 3 4 5 6 7 8 9 10 11 12 13 14 15
000
FTUS46 KMTR 232338
TAFSJC
TAF
KSJC 232338Z 2400/2424 29011KT P6SM FEW030 SCT100
     FM240400 21007KT P6SM FEW030 BKN050
     FM240600 15009KT P6SM FEW040 BKN050
     FM241000 13010KT P6SM VCSH FEW020 OVC050
     FM241300 15018G28KT P6SM -SHRA FEW020 OVC030
     FM241900 15020G30KT P6SM -RA FEW020 OVC030=

USA.gov is the U.S. government's official web portal to all federal, state and local government web resources and services.